Weather at Comodoro Arturo Merino Benítez International Airport

Public forecast

Using degrees Celsius for public forecast. Weather courtesy of forecast.io.

Current aviation weather report (METAR) for Comodoro Arturo Merino Benítez International Airport

Retrieved 2021/05/12 02:00 UTC (49 minutes ago):

SCEL 120200Z VRB01KT CAVOK 11/00 Q1016 NOSIG

Aviation forecast (TAF) for Comodoro Arturo Merino Benítez International Airport

Retrieved 2021-05-12 00:00 UTC (3 hours ago):

TAF SCEL 112212Z 1200/1224 18007KT CAVOK TX26/1219Z TN05/1210Z BECMG 1201/1203 15004KT BECMG 1206/1208 8000 NSC TEMPO 1209/1214 VRB02KT 4000 HZ BECMG 1216/1218 18008KT CAVOK